Time;durP1;ratioP1;P1;durP2;ratioP2;P2;SDS_P1;SDS_P2;PMS_P1;PMS_P2;Temp;Humidity;BMP_temperature;BMP_pressure;BME280_temperature;BME280_humidity;BME280_pressure;Samples;Min_cycle;Max_cycle;Signal;HPM_P1;HPM_P2
2022/01/23 00:00:26;;;;;;;33.33;26.03;;;7.20;95.30;;;;;;5176231;27;20176;-83
2022/01/23 00:03:00;;;;;;;35.70;26.40;;;7.20;95.60;;;;;;5156499;27;20173;-83
2022/01/23 00:05:34;;;;;;;36.47;26.03;;;7.20;95.30;;;;;;5154523;27;20184;-85
2022/01/23 00:08:02;;;;;;;32.23;26.33;;;7.30;95.30;;;;;;5157830;27;20215;-85
2022/01/23 00:10:34;;;;;;;34.17;27.17;;;7.30;95.10;;;;;;5158199;27;20174;-84
2022/01/23 00:17:17;;;;;;;34.20;27.63;;;7.30;94.70;;;;;;5159122;27;20196;-84
2022/01/23 00:18:38;;;;;;;35.20;27.93;;;7.30;94.90;;;;;;5160421;27;20185;-84
2022/01/23 00:21:06;;;;;;;35.57;27.20;;;7.20;95.40;;;;;;5143435;27;20170;-83
2022/01/23 00:32:01;;;;;;;35.10;26.57;;;7.20;95.40;;;;;;5076532;28;20207;-84
2022/01/23 00:34:26;;;;;;;34.63;27.37;;;7.40;95.00;;;;;;5128768;27;20201;-84
2022/01/23 00:36:52;;;;;;;33.87;26.53;;;7.40;94.50;;;;;;5139511;27;20515;-82
2022/01/23 00:39:18;;;;;;;37.10;27.77;;;7.40;94.50;;;;;;5159406;27;20189;-82
2022/01/23 00:41:43;;;;;;;36.37;27.47;;;7.60;94.50;;;;;;5144827;27;20170;-83
2022/01/23 00:44:09;;;;;;;35.23;27.30;;;7.40;94.00;;;;;;5151645;27;20178;-80
2022/01/23 00:46:38;;;;;;;36.53;28.93;;;7.30;94.50;;;;;;5155329;27;20153;-83
2022/01/23 00:51:43;;;;;;;36.33;27.43;;;7.50;94.50;;;;;;5164476;27;20677;-84
2022/01/23 00:54:11;;;;;;;37.73;27.90;;;7.60;94.30;;;;;;5150570;27;20166;-83
2022/01/23 00:56:38;;;;;;;34.87;27.53;;;7.60;94.10;;;;;;5175738;27;20188;-82
2022/01/23 00:59:05;;;;;;;33.33;26.93;;;7.50;93.20;;;;;;5160983;27;20199;-83
2022/01/23 01:01:33;;;;;;;36.73;27.80;;;7.40;93.80;;;;;;5162247;27;20162;-83
2022/01/23 01:03:58;;;;;;;37.10;28.30;;;7.40;94.10;;;;;;5159048;27;20194;-82
2022/01/23 01:06:24;;;;;;;39.47;27.67;;;7.30;94.10;;;;;;5144579;27;20189;-83
2022/01/23 01:08:53;;;;;;;36.13;27.90;;;7.30;94.30;;;;;;5163375;27;20291;-83
2022/01/23 01:35:42;;;;;;;35.57;27.00;;;7.30;96.80;;;;;;5174683;27;20145;-82
2022/01/23 01:38:09;;;;;;;32.30;25.90;;;7.30;96.80;;;;;;5162910;27;20153;-80
2022/01/23 01:40:36;;;;;;;35.50;27.93;;;7.30;96.60;;;;;;5163427;27;20165;-80
2022/01/23 01:43:05;;;;;;;36.23;27.67;;;7.30;96.60;;;;;;5180612;27;20190;-82
2022/01/23 01:45:33;;;;;;;37.47;27.37;;;7.30;96.70;;;;;;5157759;27;20185;-85
2022/01/23 01:48:02;;;;;;;36.70;28.13;;;7.20;96.70;;;;;;5165078;27;20187;-81
2022/01/23 01:50:34;;;;;;;37.03;28.43;;;7.10;97.00;;;;;;5149442;27;20162;-83
2022/01/23 01:53:01;;;;;;;37.10;28.33;;;7.10;97.40;;;;;;5168674;27;20186;-82
2022/01/23 01:55:38;;;;;;;37.50;28.43;;;7.00;97.60;;;;;;5146735;27;20168;-82
2022/01/23 01:58:21;;;;;;;38.80;29.63;;;7.10;98.00;;;;;;5164751;27;20294;-84
2022/01/23 02:00:56;;;;;;;38.33;30.07;;;7.30;97.50;;;;;;5151555;27;20185;-81
2022/01/23 02:08:45;;;;;;;39.90;31.40;;;7.10;97.90;;;;;;5169263;27;20184;-81
2022/01/23 02:11:41;;;;;;;39.30;30.80;;;7.20;98.10;;;;;;5153547;27;20218;-80
2022/01/23 02:54:56;;;;;;;44.30;33.37;;;7.40;97.60;;;;;;5160573;27;20158;-81
2022/01/23 03:00:13;;;;;;;49.13;33.77;;;7.60;97.10;;;;;;5165089;27;20189;-80
2022/01/23 03:02:46;;;;;;;43.83;33.20;;;7.60;96.40;;;;;;5173595;27;20180;-82
2022/01/23 03:05:22;;;;;;;47.20;32.80;;;7.50;96.30;;;;;;5161121;27;20173;-81
2022/01/23 03:07:55;;;;;;;47.90;35.07;;;7.50;96.30;;;;;;5161266;27;20216;-82
2022/01/23 03:10:36;;;;;;;45.80;33.90;;;7.60;96.40;;;;;;5161375;27;20199;-81
2022/01/23 03:27:50;;;;;;;43.77;33.80;;;7.40;97.00;;;;;;5178512;27;20149;-79
2022/01/23 03:29:50;;;;;;;48.00;35.20;;;7.40;96.10;;;;;;5164192;27;20158;-80
2022/01/23 03:32:56;;;;;;;46.13;35.03;;;7.30;96.60;;;;;;5164256;27;20288;-80
2022/01/23 03:35:05;;;;;;;47.30;34.47;;;7.40;97.10;;;;;;5171068;27;20185;-82
2022/01/23 03:37:30;;;;;;;50.23;34.87;;;7.50;97.00;;;;;;5159523;27;20264;-81
2022/01/23 03:39:56;;;;;;;48.17;35.87;;;7.50;96.30;;;;;;5180322;27;20150;-80
2022/01/23 03:42:24;;;;;;;45.80;34.30;;;7.50;95.70;;;;;;5162871;27;20198;-80
2022/01/23 03:47:38;;;;;;;46.73;33.53;;;7.10;96.90;;;;;;5151859;27;20204;-82
2022/01/23 03:50:08;;;;;;;47.40;34.90;;;7.30;97.40;;;;;;5154568;27;20680;-82
2022/01/23 03:52:34;;;;;;;49.43;34.83;;;7.30;97.00;;;;;;5169666;27;20209;-80
2022/01/23 03:54:59;;;;;;;48.50;35.17;;;7.20;97.20;;;;;;5153110;27;20575;-81
2022/01/23 03:57:29;;;;;;;48.20;34.87;;;7.10;97.70;;;;;;5137789;27;20205;-81
2022/01/23 03:59:55;;;;;;;45.93;34.30;;;7.10;97.80;;;;;;5159288;27;20214;-84
2022/01/23 04:02:21;;;;;;;46.30;34.63;;;7.10;98.10;;;;;;5178462;27;20165;-81
2022/01/23 04:04:48;;;;;;;53.10;36.17;;;7.20;98.20;;;;;;5179688;27;20178;-80
2022/01/23 04:07:21;;;;;;;47.83;35.73;;;7.30;98.10;;;;;;5180908;27;20196;-81
2022/01/23 04:09:47;;;;;;;50.30;35.70;;;7.50;97.80;;;;;;5181271;27;20145;-79
2022/01/23 04:12:31;;;;;;;50.27;36.23;;;7.60;97.30;;;;;;5162315;27;20205;-82
2022/01/23 04:15:10;;;;;;;49.23;36.53;;;7.40;96.70;;;;;;5162805;27;20241;-83
2022/01/23 04:33:59;;;;;;;47.17;35.17;;;7.50;97.20;;;;;;5177515;27;20231;-84
2022/01/23 05:01:34;;;;;;;49.27;35.83;;;7.60;95.00;;;;;;5175908;27;20183;-81
2022/01/23 05:06:58;;;;;;;46.87;34.87;;;7.50;95.80;;;;;;5172615;27;20191;-80
2022/01/23 05:09:24;;;;;;;51.00;36.83;;;7.50;95.70;;;;;;5157358;27;20169;-81
2022/01/23 05:11:54;;;;;;;50.23;36.00;;;7.60;95.10;;;;;;5156066;27;20224;-83
2022/01/23 05:14:27;;;;;;;48.50;35.87;;;7.80;93.70;;;;;;5155672;27;20192;-82
2022/01/23 05:16:53;;;;;;;48.07;34.87;;;7.70;93.70;;;;;;5153632;27;20180;-80
2022/01/23 05:19:21;;;;;;;47.43;35.33;;;7.70;94.50;;;;;;5173429;27;20225;-81
2022/01/23 05:24:41;;;;;;;52.43;36.07;;;7.50;95.70;;;;;;5173610;27;20182;-79
2022/01/23 05:27:09;;;;;;;50.03;36.17;;;7.50;95.50;;;;;;5156861;27;20216;-83
2022/01/23 05:29:37;;;;;;;47.13;34.20;;;7.40;95.70;;;;;;5153586;27;20166;-82
2022/01/23 05:32:04;;;;;;;47.47;36.93;;;7.30;95.90;;;;;;5153354;27;20224;-82
2022/01/23 05:34:30;;;;;;;49.20;36.13;;;7.40;96.30;;;;;;5166880;27;20166;-82
2022/01/23 05:36:56;;;;;;;46.73;35.43;;;7.50;96.30;;;;;;5147692;27;20180;-82
2022/01/23 05:39:22;;;;;;;50.40;35.63;;;7.60;95.30;;;;;;5148028;27;20240;-81
2022/01/23 05:41:54;;;;;;;52.23;36.20;;;7.60;94.40;;;;;;5146877;27;20181;-83
2022/01/23 05:44:20;;;;;;;45.83;34.90;;;7.40;95.70;;;;;;5152840;27;20178;-83
2022/01/23 05:46:46;;;;;;;48.97;37.17;;;7.40;95.70;;;;;;5161100;27;20202;-82
2022/01/23 05:49:11;;;;;;;50.80;36.97;;;7.50;95.50;;;;;;5163057;27;20182;-82
2022/01/23 05:51:37;;;;;;;49.23;35.70;;;7.50;95.40;;;;;;5180888;27;20192;-79
2022/01/23 05:54:03;;;;;;;47.67;34.80;;;7.30;95.90;;;;;;5160895;27;20192;-80
2022/01/23 05:56:29;;;;;;;50.30;37.33;;;7.40;96.30;;;;;;5161769;27;20178;-80
2022/01/23 05:58:56;;;;;;;45.93;34.97;;;7.50;96.30;;;;;;5160272;27;20194;-79
2022/01/23 06:01:21;;;;;;;52.33;37.07;;;7.60;96.20;;;;;;5135453;27;20169;-80
2022/01/23 06:03:47;;;;;;;49.30;35.33;;;7.50;96.00;;;;;;5153936;27;20169;-80
2022/01/23 06:06:13;;;;;;;46.97;34.83;;;7.50;96.10;;;;;;5147414;27;20225;-82
2022/01/23 06:08:39;;;;;;;51.70;37.37;;;7.60;96.00;;;;;;5145533;27;20169;-81
2022/01/23 06:11:05;;;;;;;48.83;36.87;;;7.60;95.50;;;;;;5145534;27;20177;-80
2022/01/23 06:13:32;;;;;;;49.93;36.37;;;7.50;95.80;;;;;;5164867;27;20260;-82
2022/01/23 06:15:58;;;;;;;47.70;35.23;;;7.50;96.10;;;;;;5165049;27;20158;-82
2022/01/23 06:18:24;;;;;;;51.53;36.60;;;7.50;96.20;;;;;;5158904;27;20174;-81
2022/01/23 06:20:50;;;;;;;52.70;36.70;;;7.60;95.70;;;;;;5157780;27;20146;-82
2022/01/23 06:23:17;;;;;;;51.03;36.40;;;7.50;94.80;;;;;;5140196;27;20176;-83
2022/01/23 06:25:46;;;;;;;54.90;37.47;;;7.60;94.60;;;;;;5159939;27;20214;-81
2022/01/23 06:28:23;;;;;;;56.40;38.07;;;7.60;95.10;;;;;;5149244;27;20170;-83
2022/01/23 06:30:51;;;;;;;50.17;37.00;;;7.70;95.50;;;;;;5150276;27;20172;-82
2022/01/23 06:33:23;;;;;;;51.23;36.83;;;7.70;95.40;;;;;;5153343;27;20198;-82
2022/01/23 06:35:51;;;;;;;50.93;36.10;;;7.70;95.30;;;;;;5138320;27;20158;-81
2022/01/23 06:38:20;;;;;;;52.47;36.97;;;7.50;95.70;;;;;;5137924;27;20165;-82
2022/01/23 06:40:49;;;;;;;49.13;35.23;;;7.50;96.20;;;;;;5141788;27;20205;-81
2022/01/23 06:43:15;;;;;;;50.40;35.43;;;7.40;96.30;;;;;;5141572;27;20173;-82
2022/01/23 06:45:41;;;;;;;49.67;35.10;;;7.40;96.80;;;;;;5144990;27;20178;-80
2022/01/23 06:48:07;;;;;;;50.60;36.77;;;7.50;96.80;;;;;;5145219;27;20200;-81
2022/01/23 06:50:32;;;;;;;50.17;37.10;;;7.60;96.60;;;;;;5148725;27;20166;-83
2022/01/23 06:52:58;;;;;;;50.10;35.63;;;7.70;95.80;;;;;;5150560;27;20194;-81
2022/01/23 06:55:24;;;;;;;53.53;36.97;;;7.60;95.30;;;;;;5149835;27;20174;-81
2022/01/23 06:57:49;;;;;;;50.20;36.43;;;7.40;95.70;;;;;;5156974;27;20245;-81
2022/01/23 07:00:15;;;;;;;47.67;35.27;;;7.30;96.50;;;;;;5177033;27;20194;-81
2022/01/23 07:02:41;;;;;;;47.90;35.87;;;7.30;96.90;;;;;;5160867;27;20154;-81
2022/01/23 07:05:07;;;;;;;51.67;38.07;;;7.40;97.00;;;;;;5156618;27;20162;-82
2022/01/23 07:07:32;;;;;;;49.17;35.80;;;7.60;96.90;;;;;;5144105;27;20193;-83
2022/01/23 07:09:59;;;;;;;52.43;37.07;;;7.70;96.70;;;;;;5162366;27;20162;-82
2022/01/23 07:12:27;;;;;;;52.27;36.17;;;7.70;96.40;;;;;;5145414;27;20213;-82
2022/01/23 07:14:55;;;;;;;50.57;35.33;;;7.80;96.10;;;;;;5140784;27;20597;-82
2022/01/23 07:17:24;;;;;;;48.13;35.03;;;7.80;95.90;;;;;;5164776;27;20173;-83
2022/01/23 07:19:50;;;;;;;47.73;35.63;;;7.70;95.30;;;;;;5139248;27;20781;-83
2022/01/23 07:22:15;;;;;;;51.17;36.33;;;7.70;95.90;;;;;;5134120;27;20173;-82
2022/01/23 07:24:41;;;;;;;51.10;36.07;;;7.80;95.40;;;;;;5149876;27;20166;-82
2022/01/23 07:27:15;;;;;;;51.40;36.70;;;7.90;95.00;;;;;;5170115;27;20157;-82
2022/01/23 07:29:42;;;;;;;49.60;36.00;;;7.80;94.90;;;;;;5150991;27;20172;-81
2022/01/23 07:32:09;;;;;;;48.47;35.20;;;7.90;94.70;;;;;;5149783;27;20201;-80
2022/01/23 07:34:35;;;;;;;47.13;35.27;;;7.90;94.60;;;;;;5149999;27;20176;-81
2022/01/23 07:37:01;;;;;;;48.03;35.57;;;7.80;94.60;;;;;;5150217;27;20198;-82
2022/01/23 07:39:26;;;;;;;47.13;35.90;;;7.70;94.60;;;;;;5153946;27;20174;-80
2022/01/23 07:41:52;;;;;;;48.43;36.63;;;7.70;94.70;;;;;;5179734;27;20174;-82
2022/01/23 07:44:18;;;;;;;46.83;35.50;;;7.90;94.90;;;;;;5180002;27;20197;-82
2022/01/23 07:46:45;;;;;;;52.77;36.90;;;7.70;94.80;;;;;;5164869;27;20173;-82
2022/01/23 07:49:10;;;;;;;47.00;35.87;;;7.90;94.10;;;;;;5177317;27;20637;-83
2022/01/23 07:51:38;;;;;;;50.03;36.07;;;7.90;93.70;;;;;;5166332;27;20193;-81
2022/01/23 07:54:03;;;;;;;50.20;36.93;;;7.80;93.70;;;;;;5143813;27;20264;-81
2022/01/23 07:56:29;;;;;;;47.83;34.60;;;7.90;93.90;;;;;;5160206;27;20637;-82
2022/01/23 07:58:55;;;;;;;45.97;35.83;;;7.70;93.80;;;;;;5140427;27;20200;-82
2022/01/23 08:01:22;;;;;;;47.77;35.27;;;7.60;94.50;;;;;;5158726;27;20262;-82
2022/01/23 08:03:50;;;;;;;48.70;35.97;;;7.60;94.20;;;;;;5140221;27;20222;-83
2022/01/23 08:06:16;;;;;;;48.50;35.77;;;7.60;94.10;;;;;;5159252;27;20244;-83
2022/01/23 08:08:42;;;;;;;47.03;35.67;;;7.50;94.20;;;;;;5159121;27;20209;-83
2022/01/23 08:11:08;;;;;;;49.50;35.33;;;7.40;94.60;;;;;;5140711;27;20165;-82
2022/01/23 08:13:34;;;;;;;49.67;35.73;;;7.20;95.30;;;;;;5158794;27;20165;-83
2022/01/23 08:16:00;;;;;;;49.07;35.43;;;7.10;96.20;;;;;;5139517;27;20601;-82
2022/01/23 08:18:26;;;;;;;47.20;35.77;;;7.10;96.70;;;;;;5140784;27;20162;-83
2022/01/23 08:20:52;;;;;;;49.50;35.17;;;7.30;96.50;;;;;;5158938;27;20176;-84
2022/01/23 08:23:18;;;;;;;51.30;35.77;;;7.20;96.20;;;;;;5139359;27;20330;-82
2022/01/23 08:25:44;;;;;;;52.27;36.13;;;7.10;96.70;;;;;;5140353;27;20173;-83
2022/01/23 08:28:10;;;;;;;48.17;35.27;;;7.10;97.00;;;;;;5141013;27;20196;-83
2022/01/23 08:30:36;;;;;;;49.13;35.70;;;7.10;97.20;;;;;;5142337;27;20218;-81
2022/01/23 08:33:04;;;;;;;55.10;36.90;;;7.40;96.70;;;;;;5142881;27;20206;-83
2022/01/23 08:35:30;;;;;;;47.63;35.20;;;7.40;96.20;;;;;;5147355;27;20208;-81
2022/01/23 08:37:56;;;;;;;51.00;36.33;;;7.30;96.30;;;;;;5141334;27;20192;-83
2022/01/23 08:40:34;;;;;;;50.57;36.57;;;7.40;96.20;;;;;;5156438;27;20181;-82
2022/01/23 08:43:00;;;;;;;49.60;35.60;;;7.50;95.70;;;;;;5143219;27;20157;-84
2022/01/23 08:45:28;;;;;;;47.50;34.63;;;7.70;95.00;;;;;;5155715;27;20199;-83
2022/01/23 08:47:54;;;;;;;51.77;36.53;;;7.40;95.20;;;;;;5149197;27;20181;-84
2022/01/23 08:50:20;;;;;;;48.90;35.93;;;7.50;95.50;;;;;;5141578;27;20706;-84
2022/01/23 08:52:46;;;;;;;48.57;35.87;;;7.50;95.40;;;;;;5140616;27;20213;-85
2022/01/23 08:55:12;;;;;;;48.50;34.80;;;7.40;95.40;;;;;;5140281;27;20225;-84
2022/01/23 08:57:37;;;;;;;50.93;36.80;;;7.50;95.70;;;;;;5139896;27;20178;-84
2022/01/23 09:00:05;;;;;;;48.00;34.87;;;7.60;95.20;;;;;;5161892;27;20213;-83
2022/01/23 09:02:30;;;;;;;50.67;36.23;;;7.80;94.30;;;;;;5140540;27;20175;-84
2022/01/23 09:04:56;;;;;;;49.67;35.30;;;7.90;93.50;;;;;;5143514;27;20169;-84
2022/01/23 09:07:22;;;;;;;49.40;36.33;;;7.90;93.00;;;;;;5142394;27;20540;-83
2022/01/23 09:09:50;;;;;;;50.07;36.63;;;7.80;93.10;;;;;;5162420;27;20261;-83
2022/01/23 09:15:10;;;;;;;50.50;35.47;;;7.90;93.10;;;;;;5143637;27;20672;-83
2022/01/23 09:17:36;;;;;;;54.17;38.50;;;7.70;94.10;;;;;;5139951;27;20176;-83
2022/01/23 09:20:03;;;;;;;52.07;37.60;;;7.80;93.80;;;;;;5158673;27;20177;-83
2022/01/23 09:22:31;;;;;;;49.83;36.37;;;7.90;93.50;;;;;;5158899;27;20170;-83
2022/01/23 09:25:00;;;;;;;49.33;35.73;;;7.80;93.40;;;;;;5139348;27;20169;-83
2022/01/23 09:27:26;;;;;;;46.10;34.30;;;7.80;93.50;;;;;;5137850;27;20165;-84
2022/01/23 09:29:54;;;;;;;52.47;36.00;;;7.80;93.80;;;;;;5137982;27;20251;-84
2022/01/23 09:32:22;;;;;;;48.80;36.47;;;7.80;93.80;;;;;;5137919;27;20189;-82
2022/01/23 09:34:51;;;;;;;45.33;34.80;;;7.70;93.70;;;;;;5138417;27;20617;-84
2022/01/23 09:37:19;;;;;;;46.43;33.87;;;7.80;93.50;;;;;;5157013;27;20183;-84
2022/01/23 09:39:49;;;;;;;46.30;35.10;;;7.90;93.20;;;;;;5157880;27;20177;-85
2022/01/23 09:42:27;;;;;;;48.33;34.67;;;7.70;93.40;;;;;;5138056;27;20237;-83
2022/01/23 09:45:09;;;;;;;46.27;33.67;;;7.80;93.10;;;;;;5138230;27;20181;-82
2022/01/23 09:47:36;;;;;;;47.63;34.87;;;7.80;93.30;;;;;;5137984;27;20169;-85
2022/01/23 09:50:03;;;;;;;51.10;36.00;;;7.80;93.10;;;;;;5138848;27;20165;-85
2022/01/23 09:52:33;;;;;;;50.17;36.97;;;7.80;93.10;;;;;;5138121;27;20215;-83
2022/01/23 09:55:06;;;;;;;49.50;34.67;;;8.00;92.80;;;;;;5137811;27;20166;-83
2022/01/23 09:57:34;;;;;;;47.90;35.40;;;8.10;92.50;;;;;;5156091;27;20178;-83
2022/01/23 10:00:03;;;;;;;46.80;35.33;;;8.20;92.20;;;;;;5140815;27;20197;-83
2022/01/23 10:02:29;;;;;;;45.57;33.07;;;8.20;91.50;;;;;;5138105;27;20230;-84
2022/01/23 10:04:55;;;;;;;46.87;34.97;;;8.20;91.30;;;;;;5139837;27;20174;-83
2022/01/23 10:07:21;;;;;;;46.00;34.73;;;8.20;90.00;;;;;;5160318;27;20169;-85
2022/01/23 10:09:58;;;;;;;45.33;33.93;;;8.20;89.30;;;;;;5139130;27;20670;-83
2022/01/23 10:12:26;;;;;;;45.23;33.90;;;8.30;88.30;;;;;;5137798;27;20201;-83
2022/01/23 10:14:54;;;;;;;47.63;34.63;;;8.40;84.50;;;;;;5157049;27;20181;-83
2022/01/23 10:17:20;;;;;;;46.27;34.57;;;8.30;83.40;;;;;;5143274;27;20633;-84
2022/01/23 10:19:46;;;;;;;47.47;33.90;;;8.40;85.00;;;;;;5140261;27;20184;-83
2022/01/23 10:22:14;;;;;;;45.90;33.23;;;8.30;85.50;;;;;;5157362;27;20170;-82
2022/01/23 10:24:42;;;;;;;49.77;35.60;;;8.30;84.50;;;;;;5139388;27;20173;-83
2022/01/23 10:27:08;;;;;;;48.50;34.70;;;8.20;84.90;;;;;;5142470;27;20166;-84
2022/01/23 10:29:37;;;;;;;41.97;31.70;;;8.10;84.70;;;;;;5161470;27;20220;-84
2022/01/23 10:32:07;;;;;;;45.43;31.67;;;8.20;84.50;;;;;;5142649;27;20209;-82
2022/01/23 10:34:59;;;;;;;43.73;30.47;;;8.10;85.40;;;;;;5138235;27;20173;-83
2022/01/23 10:37:25;;;;;;;37.43;25.63;;;8.20;85.40;;;;;;5138027;27;20173;-85
2022/01/23 10:39:51;;;;;;;39.70;29.57;;;8.00;82.40;;;;;;5161444;27;20169;-83
2022/01/23 10:42:54;;;;;;;41.10;30.70;;;7.90;81.20;;;;;;5160177;27;20531;-84
2022/01/23 10:48:35;;;;;;;38.47;28.57;;;8.00;85.10;;;;;;5169764;27;20226;-85
2022/01/23 10:51:29;;;;;;;41.60;30.03;;;8.20;83.30;;;;;;5149082;27;20712;-83
2022/01/23 10:54:01;;;;;;;49.03;34.17;;;8.30;82.50;;;;;;5151991;27;20340;-84
2022/01/23 10:56:31;;;;;;;37.53;28.43;;;8.40;81.70;;;;;;5172048;27;20252;-84
2022/01/23 10:59:05;;;;;;;35.00;27.70;;;8.50;76.20;;;;;;5174327;27;20194;-83
2022/01/23 11:01:33;;;;;;;39.63;29.43;;;8.60;68.60;;;;;;5147974;27;20174;-84
2022/01/23 11:04:12;;;;;;;40.80;30.13;;;8.40;72.70;;;;;;5175765;27;20146;-85
2022/01/23 11:06:52;;;;;;;37.53;28.90;;;8.10;76.50;;;;;;5146944;27;20632;-83
2022/01/23 11:09:25;;;;;;;37.23;29.20;;;8.20;78.20;;;;;;5129836;27;20212;-84
2022/01/23 11:11:59;;;;;;;40.97;29.40;;;8.40;77.50;;;;;;5149544;27;20205;-84
2022/01/23 11:17:22;;;;;;;34.10;25.43;;;8.60;71.10;;;;;;5166822;27;20527;-84
2022/01/23 11:19:50;;;;;;;39.30;27.57;;;8.50;72.90;;;;;;5147549;27;20205;-84
2022/01/23 11:22:24;;;;;;;35.83;26.93;;;8.30;73.70;;;;;;5168558;27;20153;-84
2022/01/23 11:24:52;;;;;;;42.53;29.83;;;8.20;75.60;;;;;;5167643;27;20233;-83
2022/01/23 11:27:20;;;;;;;38.63;28.43;;;8.30;76.70;;;;;;5162790;27;20177;-83
2022/01/23 11:29:55;;;;;;;36.40;28.87;;;8.40;73.70;;;;;;5165098;27;20177;-83
2022/01/23 11:32:25;;;;;;;37.03;27.83;;;8.80;70.20;;;;;;5168695;27;20193;-82
2022/01/23 11:35:03;;;;;;;35.20;27.23;;;8.60;68.40;;;;;;5151135;27;20158;-84
2022/01/23 11:37:29;;;;;;;36.47;28.50;;;8.50;69.00;;;;;;5166895;27;20165;-84
2022/01/23 11:40:03;;;;;;;38.60;28.83;;;8.50;71.10;;;;;;5148125;27;20161;-84
2022/01/23 11:53:46;;;;;;;31.97;25.47;;;8.60;65.20;;;;;;5147624;27;20707;-83
2022/01/23 11:56:29;;;;;;;36.53;26.63;;;8.30;67.70;;;;;;5144713;27;20529;-84
2022/01/23 11:59:14;;;;;;;42.73;29.03;;;8.30;69.10;;;;;;5158900;27;20185;-83
2022/01/23 12:01:41;;;;;;;38.77;28.20;;;8.30;67.80;;;;;;5142084;27;20180;-82
2022/01/23 12:04:16;;;;;;;35.13;26.20;;;8.40;66.60;;;;;;5159671;27;20182;-83
2022/01/23 12:06:45;;;;;;;34.70;26.20;;;8.40;66.20;;;;;;5140832;27;20169;-84
2022/01/23 12:09:16;;;;;;;36.77;27.53;;;8.30;65.30;;;;;;5142403;27;20738;-83
2022/01/23 12:12:19;;;;;;;34.47;26.23;;;8.40;64.60;;;;;;5162404;27;20205;-83
2022/01/23 12:17:16;;;;;;;38.40;26.53;;;8.50;65.60;;;;;;5161541;27;20637;-84
2022/01/23 12:20:02;;;;;;;34.97;25.83;;;8.30;65.50;;;;;;5162123;27;20161;-85
2022/01/23 12:22:36;;;;;;;34.97;27.37;;;8.20;67.70;;;;;;5160889;27;20165;-83
2022/01/23 12:25:24;;;;;;;34.00;25.47;;;8.40;67.30;;;;;;5145767;27;20196;-82
2022/01/23 12:28:09;;;;;;;40.80;27.27;;;8.40;65.80;;;;;;5144545;27;20181;-83
2022/01/23 12:30:38;;;;;;;37.43;27.73;;;8.40;64.80;;;;;;5168029;27;20218;-83
2022/01/23 12:33:21;;;;;;;37.90;27.07;;;8.30;63.20;;;;;;5144724;27;20707;-82
2022/01/23 12:35:51;;;;;;;36.20;26.60;;;8.20;66.10;;;;;;5149370;27;20294;-83
2022/01/23 12:38:18;;;;;;;36.77;25.87;;;8.20;67.70;;;;;;5168299;27;20188;-83
2022/01/23 12:40:49;;;;;;;60.90;42.00;;;8.40;65.00;;;;;;5128803;27;20184;-83
2022/01/23 12:43:21;;;;;;;35.67;26.43;;;8.40;66.30;;;;;;5145828;27;20173;-82
2022/01/23 12:45:52;;;;;;;37.57;27.80;;;8.50;66.90;;;;;;5145158;27;20286;-84
2022/01/23 12:48:30;;;;;;;38.07;27.67;;;8.70;65.20;;;;;;5144151;27;20166;-83
2022/01/23 12:50:59;;;;;;;38.37;28.53;;;8.50;66.90;;;;;;5145317;27;20192;-83
2022/01/23 12:53:48;;;;;;;39.77;29.17;;;8.70;66.70;;;;;;5163213;27;20681;-84
2022/01/23 12:56:18;;;;;;;38.60;29.43;;;8.90;65.00;;;;;;5129052;27;20185;-82
2022/01/23 12:58:55;;;;;;;39.47;29.07;;;9.00;62.40;;;;;;5144832;27;20193;-84
2022/01/23 13:01:23;;;;;;;35.80;29.10;;;9.00;60.70;;;;;;5136107;27;20166;-83
2022/01/23 13:03:59;;;;;;;38.30;28.53;;;8.80;62.40;;;;;;5162703;27;20182;-82
2022/01/23 13:06:49;;;;;;;36.67;28.33;;;8.80;63.60;;;;;;5160607;27;20225;-84
2022/01/23 13:12:14;;;;;;;37.43;27.80;;;9.00;58.30;;;;;;5167893;27;20197;-84
2022/01/23 13:15:11;;;;;;;33.43;25.60;;;8.90;59.10;;;;;;5155370;27;20206;-83
2022/01/23 13:18:19;;;;;;;40.77;27.67;;;9.10;57.10;;;;;;5171057;27;20174;-83
2022/01/23 13:32:25;;;;;;;26.53;19.63;;;9.10;54.80;;;;;;5178486;27;20192;-82
2022/01/23 13:35:05;;;;;;;14.53;9.93;;;9.20;52.60;;;;;;5146609;27;20173;-83
2022/01/23 13:37:35;;;;;;;10.63;7.73;;;8.70;44.00;;;;;;5150605;27;20210;-81
2022/01/23 13:40:15;;;;;;;11.03;8.80;;;8.30;43.80;;;;;;5151580;27;20165;-82
2022/01/23 14:02:45;;;;;;;17.93;13.07;;;8.50;44.70;;;;;;5172499;27;20215;-84
2022/01/23 14:05:23;;;;;;;16.53;12.10;;;8.70;42.40;;;;;;5149718;27;20216;-82
2022/01/23 14:07:53;;;;;;;16.63;12.67;;;8.60;42.70;;;;;;5159203;27;20169;-82
2022/01/23 14:10:38;;;;;;;15.33;11.50;;;8.90;43.60;;;;;;5154758;27;20174;-83
2022/01/23 14:13:11;;;;;;;11.23;9.73;;;8.80;41.00;;;;;;5151127;27;20212;-82
2022/01/23 14:15:49;;;;;;;9.93;8.47;;;8.60;38.30;;;;;;5150348;27;20210;-83
2022/01/23 14:18:22;;;;;;;13.13;9.00;;;8.60;35.80;;;;;;5151309;27;20648;-84
2022/01/23 14:21:15;;;;;;;12.03;9.23;;;8.70;36.10;;;;;;5171721;27;20126;-84
2022/01/23 14:23:55;;;;;;;9.97;8.10;;;8.50;33.30;;;;;;5154368;27;20201;-82
2022/01/23 14:26:22;;;;;;;11.67;7.53;;;8.50;35.70;;;;;;5154690;27;20185;-84
2022/01/23 14:28:53;;;;;;;13.07;9.90;;;8.20;33.90;;;;;;5152861;27;20202;-84
2022/01/23 14:31:24;;;;;;;13.27;10.10;;;8.10;38.20;;;;;;5156118;27;20660;-83
2022/01/23 14:33:59;;;;;;;14.53;10.80;;;8.30;37.90;;;;;;5163499;27;20548;-81
2022/01/23 14:36:28;;;;;;;14.23;10.77;;;8.50;37.70;;;;;;5148907;27;20183;-82
2022/01/23 14:39:03;;;;;;;17.43;12.90;;;8.60;37.00;;;;;;5146713;27;20177;-83
2022/01/23 14:41:34;;;;;;;19.27;13.83;;;8.70;34.80;;;;;;5144227;27;20265;-84
2022/01/23 14:44:14;;;;;;;17.37;12.23;;;8.40;36.30;;;;;;5165113;27;20182;-85
2022/01/23 14:46:46;;;;;;;18.40;12.60;;;8.40;39.10;;;;;;5165872;27;20169;-83
2022/01/23 14:49:21;;;;;;;16.87;12.67;;;8.20;42.70;;;;;;5128776;27;20226;-84
2022/01/23 14:51:47;;;;;;;19.53;14.73;;;8.10;43.70;;;;;;5147242;27;20216;-84
2022/01/23 14:54:16;;;;;;;18.87;14.57;;;8.00;39.40;;;;;;5142961;27;20226;-84
2022/01/23 14:56:42;;;;;;;21.13;15.30;;;8.00;40.40;;;;;;5145593;27;20280;-84
2022/01/23 14:59:14;;;;;;;21.37;16.60;;;8.20;34.90;;;;;;5148979;27;20198;-85
2022/01/23 15:01:44;;;;;;;18.47;14.17;;;8.10;32.80;;;;;;5145983;27;20641;-85
2022/01/23 15:04:12;;;;;;;21.70;14.60;;;8.10;33.10;;;;;;5124918;27;20173;-83
2022/01/23 15:06:52;;;;;;;19.13;15.10;;;8.00;33.10;;;;;;5142048;27;20178;-83
2022/01/23 15:09:21;;;;;;;19.57;16.93;;;8.30;32.80;;;;;;5150035;27;20184;-83
2022/01/23 15:11:48;;;;;;;22.00;17.20;;;8.50;30.90;;;;;;5141404;27;20193;-82
2022/01/23 15:14:19;;;;;;;24.47;17.97;;;8.60;29.10;;;;;;5142001;27;20178;-83
2022/01/23 15:16:48;;;;;;;26.17;18.00;;;8.60;28.20;;;;;;5140676;27;20226;-83
2022/01/23 15:19:14;;;;;;;22.47;15.63;;;8.50;28.70;;;;;;5145468;27;20662;-83
2022/01/23 15:21:40;;;;;;;20.60;15.37;;;8.20;32.70;;;;;;5150289;27;20209;-82
2022/01/23 15:24:06;;;;;;;21.57;17.10;;;8.40;36.20;;;;;;5125350;27;20609;-85
2022/01/23 15:26:35;;;;;;;19.43;14.40;;;8.30;31.50;;;;;;5161827;27;20174;-83
2022/01/23 15:29:05;;;;;;;21.60;17.00;;;8.00;30.10;;;;;;5167649;27;20165;-84
2022/01/23 15:31:31;;;;;;;18.50;13.73;;;8.30;31.90;;;;;;5147763;27;20174;-85
2022/01/23 15:33:57;;;;;;;16.87;13.00;;;8.30;24.00;;;;;;5146148;27;20170;-84
2022/01/23 15:36:23;;;;;;;17.77;11.40;;;8.00;26.80;;;;;;5149054;27;20170;-82
2022/01/23 15:38:51;;;;;;;15.07;11.37;;;7.70;30.80;;;;;;5169992;27;20187;-85
2022/01/23 15:41:17;;;;;;;17.77;12.83;;;7.70;33.60;;;;;;5148630;27;20170;-83
2022/01/23 15:43:47;;;;;;;18.87;13.70;;;7.80;34.50;;;;;;5156643;27;20242;-85
2022/01/23 15:46:14;;;;;;;19.73;11.67;;;7.90;34.40;;;;;;5148583;27;20173;-82
2022/01/23 15:48:41;;;;;;;12.10;7.73;;;7.90;31.80;;;;;;5127497;27;20697;-84
2022/01/23 15:51:09;;;;;;;9.17;6.73;;;7.70;27.30;;;;;;5152278;27;20653;-84
2022/01/23 15:53:35;;;;;;;12.97;8.90;;;7.50;28.00;;;;;;5149163;27;20272;-83
2022/01/23 15:56:04;;;;;;;12.43;9.70;;;7.40;32.70;;;;;;5169383;27;20162;-83
2022/01/23 15:58:31;;;;;;;15.53;10.30;;;7.70;30.60;;;;;;5163582;27;20212;-83
2022/01/23 16:00:58;;;;;;;12.90;9.53;;;7.90;25.90;;;;;;5131872;27;20245;-84
2022/01/23 16:03:26;;;;;;;14.93;10.47;;;7.90;24.70;;;;;;5148988;27;20205;-84
2022/01/23 16:05:52;;;;;;;13.93;9.97;;;8.00;24.00;;;;;;5166673;27;20190;-85
2022/01/23 16:08:19;;;;;;;17.17;12.70;;;8.20;22.50;;;;;;5128720;27;20185;-84
2022/01/23 16:10:45;;;;;;;16.50;12.50;;;8.30;19.60;;;;;;5146467;27;20252;-84
2022/01/23 16:13:13;;;;;;;14.23;10.20;;;8.30;18.20;;;;;;5145678;27;20277;-83
2022/01/23 16:15:40;;;;;;;15.30;12.17;;;8.10;19.70;;;;;;5145572;27;20161;-85
2022/01/23 16:18:05;;;;;;;14.07;11.77;;;8.00;23.90;;;;;;5164720;27;20179;-84
2022/01/23 16:20:33;;;;;;;18.07;13.23;;;8.10;23.30;;;;;;5164840;27;20170;-84